Time;durP1;ratioP1;P1;durP2;ratioP2;P2;SDS_P1;SDS_P2;PMS_P1;PMS_P2;Temp;Humidity;BMP_temperature;BMP_pressure;BME280_temperature;BME280_humidity;BME280_pressure;Samples;Min_cycle;Max_cycle;Signal;HPM_P1;HPM_P2
2022/06/13 00:01:01;;;;;;;14.88;5.68;;;14.40;99.90;;;;;;5010746;28;20050;-72
2022/06/13 00:03:27;;;;;;;15.15;5.38;;;14.50;99.90;;;;;;5010609;28;20220;-71
2022/06/13 00:05:52;;;;;;;12.05;5.20;;;14.50;99.90;;;;;;5010958;28;20476;-71
2022/06/13 00:08:18;;;;;;;12.90;5.90;;;14.60;99.90;;;;;;5011645;28;20402;-71
2022/06/13 00:10:44;;;;;;;13.52;5.32;;;14.90;99.90;;;;;;5010879;28;20096;-71
2022/06/13 00:13:09;;;;;;;15.48;5.47;;;14.90;99.90;;;;;;4993429;28;20049;-71
2022/06/13 00:15:35;;;;;;;15.20;5.30;;;14.30;99.90;;;;;;5009950;28;20046;-71
2022/06/13 00:18:01;;;;;;;13.45;5.53;;;14.30;99.90;;;;;;5010166;28;20068;-71
2022/06/13 00:20:27;;;;;;;13.45;5.45;;;14.80;99.90;;;;;;5010909;28;20084;-71
2022/06/13 00:22:52;;;;;;;21.50;6.43;;;14.20;99.90;;;;;;5008908;28;20452;-71
2022/06/13 00:25:18;;;;;;;14.82;5.88;;;14.10;99.90;;;;;;4992963;28;20514;-71
2022/06/13 00:27:44;;;;;;;17.90;5.70;;;14.10;99.90;;;;;;5012971;28;20045;-71
2022/06/13 00:30:11;;;;;;;14.38;5.82;;;14.10;99.90;;;;;;4994857;28;20050;-71
2022/06/13 00:32:37;;;;;;;14.82;5.82;;;14.10;99.90;;;;;;5010375;28;20498;-71
2022/06/13 00:35:03;;;;;;;16.15;6.18;;;14.00;99.90;;;;;;5009629;28;20053;-72
2022/06/13 00:37:29;;;;;;;15.85;6.07;;;14.00;99.90;;;;;;4992575;28;20073;-71
2022/06/13 00:39:55;;;;;;;15.25;6.13;;;14.00;99.90;;;;;;4992551;28;20123;-72
2022/06/13 00:42:23;;;;;;;14.35;5.82;;;14.20;99.90;;;;;;5009105;28;20046;-71
2022/06/13 00:45:10;;;;;;;12.00;6.15;;;14.00;99.90;;;;;;4976368;28;20038;-71
2022/06/13 00:47:38;;;;;;;17.95;5.38;;;14.10;99.90;;;;;;4991373;28;20136;-71
2022/06/13 00:50:06;;;;;;;19.02;5.88;;;14.10;99.90;;;;;;4977963;28;20046;-72
2022/06/13 00:52:47;;;;;;;17.20;6.00;;;14.10;99.90;;;;;;5010987;28;20046;-72
2022/06/13 00:55:18;;;;;;;14.93;5.90;;;14.10;99.90;;;;;;5011858;28;20085;-71
2022/06/13 00:57:44;;;;;;;15.27;5.65;;;14.10;99.90;;;;;;5014907;28;20037;-72
2022/06/13 01:00:16;;;;;;;16.25;6.40;;;14.30;99.90;;;;;;5012205;28;20055;-71
2022/06/13 01:02:45;;;;;;;15.15;6.15;;;14.20;99.90;;;;;;5028917;28;20045;-72
2022/06/13 01:05:15;;;;;;;18.40;6.00;;;14.20;99.90;;;;;;5028891;28;20037;-71
2022/06/13 01:07:41;;;;;;;15.40;6.13;;;14.20;99.90;;;;;;5028562;28;20617;-71
2022/06/13 01:12:52;;;;;;;18.73;6.13;;;14.30;99.90;;;;;;5029150;28;20046;-71
2022/06/13 01:15:33;;;;;;;14.77;6.50;;;14.20;99.90;;;;;;5029366;28;20088;-71
2022/06/13 01:18:23;;;;;;;16.60;6.10;;;14.20;99.90;;;;;;5028499;28;20159;-72
2022/06/13 01:20:54;;;;;;;16.05;6.53;;;14.20;99.90;;;;;;5029319;28;20103;-71
2022/06/13 01:23:35;;;;;;;16.40;6.20;;;14.20;99.90;;;;;;5010479;28;20056;-71
2022/06/13 01:26:34;;;;;;;17.15;6.18;;;14.30;99.90;;;;;;5011015;28;20042;-71
2022/06/13 01:29:22;;;;;;;14.63;6.10;;;14.20;99.90;;;;;;5029599;28;20144;-72
2022/06/13 01:31:54;;;;;;;16.80;6.20;;;14.20;99.90;;;;;;5027548;28;20041;-70
2022/06/13 01:34:25;;;;;;;18.02;6.30;;;14.70;99.90;;;;;;5010864;28;20096;-71
2022/06/13 01:37:09;;;;;;;19.42;6.78;;;14.10;99.90;;;;;;4990824;28;20048;-71
2022/06/13 01:39:53;;;;;;;17.02;6.50;;;14.10;99.90;;;;;;5008348;28;20052;-71
2022/06/13 01:42:32;;;;;;;18.73;6.63;;;14.10;99.90;;;;;;5009305;28;20038;-71
2022/06/13 01:45:23;;;;;;;13.60;5.90;;;14.10;99.90;;;;;;5025907;28;20045;-71
2022/06/13 01:48:01;;;;;;;14.38;6.35;;;14.20;99.90;;;;;;5028272;28;20417;-71
2022/06/13 01:50:53;;;;;;;16.02;7.05;;;14.20;99.90;;;;;;5013129;28;20132;-71
2022/06/13 01:53:36;;;;;;;15.80;6.43;;;14.20;99.90;;;;;;4986538;28;20057;-71
2022/06/13 01:56:11;;;;;;;16.30;6.03;;;14.20;99.90;;;;;;5029154;28;20096;-71
2022/06/13 01:58:52;;;;;;;;;;;14.20;99.90;;;;;;5011480;28;20052;-71
2022/06/13 02:01:34;;;;;;;14.70;6.45;;;14.20;99.90;;;;;;5027059;28;19925;-71
2022/06/13 02:04:15;;;;;;;21.15;7.10;;;14.30;99.90;;;;;;5010658;28;20065;-71
2022/06/13 02:06:45;;;;;;;17.88;6.95;;;14.30;99.90;;;;;;5027872;28;20480;-71
2022/06/13 02:09:17;;;;;;;16.05;6.85;;;14.30;99.90;;;;;;5010173;28;20037;-71
2022/06/13 02:11:50;;;;;;;20.50;6.75;;;14.30;99.90;;;;;;5028989;28;20064;-71
2022/06/13 02:14:43;;;;;;;16.58;7.07;;;14.60;99.90;;;;;;5027748;28;20482;-71
2022/06/13 02:17:16;;;;;;;18.15;6.38;;;14.30;99.90;;;;;;5010211;28;20049;-72
2022/06/13 02:19:45;;;;;;;19.60;7.20;;;14.30;99.90;;;;;;5028774;28;20148;-71
2022/06/13 02:22:41;;;;;;;15.73;6.38;;;14.20;99.90;;;;;;5026798;28;20050;-71
2022/06/13 02:25:14;;;;;;;;;;;14.30;99.90;;;;;;5006944;28;20108;-71
2022/06/13 02:27:41;;;;;;;17.02;7.20;;;14.30;99.90;;;;;;5027032;28;19923;-71
2022/06/13 02:30:12;;;;;;;18.08;6.43;;;14.40;99.90;;;;;;5011175;28;20049;-71
2022/06/13 02:32:46;;;;;;;18.50;6.85;;;14.30;99.90;;;;;;5027107;28;20091;-71
2022/06/13 02:35:28;;;;;;;16.73;6.35;;;14.30;99.90;;;;;;5028045;28;20049;-71
2022/06/13 02:38:05;;;;;;;14.73;6.22;;;14.30;99.90;;;;;;5028002;28;20142;-71
2022/06/13 02:40:39;;;;;;;15.35;6.38;;;14.40;99.90;;;;;;5028427;28;20053;-71
2022/06/13 02:43:32;;;;;;;16.23;6.10;;;14.30;99.90;;;;;;5027586;28;20041;-70
2022/06/13 02:46:10;;;;;;;16.38;6.43;;;14.30;99.90;;;;;;5010188;28;20089;-71
2022/06/13 02:48:51;;;;;;;20.48;6.80;;;14.30;99.90;;;;;;5028474;28;20057;-70
2022/06/13 02:51:46;;;;;;;19.02;6.65;;;14.30;99.90;;;;;;5028552;28;20513;-71
2022/06/13 02:54:31;;;;;;;21.17;6.93;;;14.30;99.90;;;;;;5027629;28;20091;-71
2022/06/13 02:57:24;;;;;;;18.40;6.78;;;14.70;99.90;;;;;;5027717;28;20080;-71
2022/06/13 03:00:11;;;;;;;20.35;7.07;;;14.30;99.90;;;;;;5008290;28;20557;-71
2022/06/13 03:02:42;;;;;;;19.58;6.93;;;14.30;99.90;;;;;;5007601;28;20108;-71
2022/06/13 03:05:39;;;;;;;17.20;7.43;;;15.00;99.90;;;;;;4991877;28;20042;-71
2022/06/13 03:08:04;;;;;;;;;;;14.20;99.90;;;;;;5008073;28;20479;-71
2022/06/13 03:10:46;;;;;;;17.58;6.95;;;14.20;99.90;;;;;;5005826;28;19917;-71
2022/06/13 03:13:34;;;;;;;17.75;6.70;;;14.20;99.90;;;;;;5007905;28;20076;-71
2022/06/13 03:16:09;;;;;;;20.73;6.63;;;14.20;99.90;;;;;;5011221;28;20537;-71
2022/06/13 03:18:44;;;;;;;14.50;6.32;;;14.20;99.90;;;;;;5011197;28;20045;-71
2022/06/13 03:21:20;;;;;;;15.77;5.95;;;14.70;99.90;;;;;;4993988;28;20046;-71
2022/06/13 03:23:49;;;;;;;15.50;5.88;;;14.30;99.90;;;;;;4977702;28;20125;-72
2022/06/13 03:26:20;;;;;;;18.17;6.70;;;14.20;99.90;;;;;;5011203;28;20041;-71
2022/06/13 03:28:57;;;;;;;19.40;6.53;;;14.20;99.90;;;;;;5011925;28;20038;-71
2022/06/13 03:31:30;;;;;;;12.68;5.38;;;14.20;99.90;;;;;;5010352;28;20100;-71
2022/06/13 03:34:00;;;;;;;16.08;5.93;;;14.20;99.90;;;;;;5011484;28;20111;-71
2022/06/13 03:36:30;;;;;;;13.05;6.07;;;14.20;99.90;;;;;;5011509;28;20196;-72
2022/06/13 03:39:21;;;;;;;14.38;5.95;;;14.20;99.90;;;;;;5012472;28;20137;-72
2022/06/13 03:41:54;;;;;;;12.85;5.60;;;14.40;99.90;;;;;;5000064;28;20535;-72
2022/06/13 03:44:33;;;;;;;13.77;5.18;;;14.20;99.90;;;;;;5005906;28;20045;-71
2022/06/13 03:47:12;;;;;;;16.48;6.13;;;14.20;99.90;;;;;;5029325;28;20057;-73
2022/06/13 03:49:56;;;;;;;14.77;5.38;;;14.60;99.90;;;;;;5030748;28;20402;-71
2022/06/13 03:52:24;;;;;;;12.68;5.22;;;14.20;99.90;;;;;;4995494;28;20049;-71
2022/06/13 03:55:01;;;;;;;13.18;5.40;;;14.20;99.90;;;;;;5030550;28;20041;-71
2022/06/13 03:57:34;;;;;;;11.13;4.95;;;14.20;99.90;;;;;;5013379;28;20072;-71
2022/06/13 04:00:31;;;;;;;16.60;5.30;;;14.30;99.90;;;;;;5030510;28;20091;-71
2022/06/13 04:03:00;;;;;;;13.70;4.70;;;14.30;99.90;;;;;;5030031;28;20053;-71
2022/06/13 04:05:44;;;;;;;11.60;4.88;;;14.30;99.90;;;;;;5012321;28;20073;-71
2022/06/13 04:08:12;;;;;;;12.40;4.78;;;14.40;99.90;;;;;;5028997;28;20049;-72
2022/06/13 04:10:55;;;;;;;14.45;5.68;;;14.40;99.90;;;;;;5013152;28;20387;-71
2022/06/13 04:13:26;;;;;;;15.10;5.13;;;14.40;99.90;;;;;;5029818;28;20045;-71
2022/06/13 04:16:13;;;;;;;15.75;5.63;;;14.80;99.90;;;;;;5030456;28;20045;-71
2022/06/13 04:18:45;;;;;;;15.35;5.22;;;14.50;99.90;;;;;;5030667;28;20085;-71
2022/06/13 04:21:37;;;;;;;16.45;5.10;;;14.50;99.90;;;;;;5012248;28;20422;-71
2022/06/13 04:24:22;;;;;;;14.13;4.65;;;14.50;99.90;;;;;;5010639;28;20103;-71
2022/06/13 04:27:00;;;;;;;11.52;4.97;;;14.50;99.90;;;;;;4991922;28;20368;-71
2022/06/13 04:29:28;;;;;;;15.63;5.13;;;14.80;99.90;;;;;;5010178;28;20066;-71
2022/06/13 04:32:00;;;;;;;13.88;4.32;;;14.50;99.90;;;;;;5010824;28;20046;-71
2022/06/13 04:34:32;;;;;;;12.75;4.95;;;14.50;99.90;;;;;;5012357;28;20041;-71
2022/06/13 04:36:59;;;;;;;14.65;4.60;;;14.50;99.90;;;;;;5012146;28;20478;-71
2022/06/13 04:39:30;;;;;;;12.77;4.93;;;14.60;99.90;;;;;;5009905;28;20046;-71
2022/06/13 04:42:00;;;;;;;8.85;4.13;;;15.00;99.90;;;;;;5009824;28;20049;-71
2022/06/13 04:44:28;;;;;;;9.43;4.10;;;14.40;99.90;;;;;;5010240;28;20038;-71
2022/06/13 04:46:55;;;;;;;9.68;3.70;;;14.40;99.90;;;;;;5009094;28;20090;-71
2022/06/13 04:49:29;;;;;;;9.70;3.78;;;14.40;99.90;;;;;;5009425;28;20387;-72
2022/06/13 04:51:57;;;;;;;11.77;3.88;;;14.40;99.90;;;;;;4992334;28;20050;-72
2022/06/13 04:54:33;;;;;;;14.85;4.55;;;14.60;99.90;;;;;;5010370;28;20180;-72
2022/06/13 04:57:00;;;;;;;11.77;3.38;;;14.50;99.90;;;;;;5011215;28;20402;-72
2022/06/13 04:59:27;;;;;;;10.52;3.63;;;14.50;99.90;;;;;;5028884;28;20050;-72
2022/06/13 05:01:55;;;;;;;13.35;3.45;;;14.70;99.90;;;;;;5011478;28;20168;-72
2022/06/13 05:04:26;;;;;;;7.85;3.05;;;14.70;99.90;;;;;;5028364;28;20045;-72
2022/06/13 05:06:54;;;;;;;12.68;3.63;;;14.80;99.90;;;;;;5029135;28;20120;-72
2022/06/13 05:09:27;;;;;;;15.20;3.45;;;15.10;99.90;;;;;;5028550;28;20088;-72
2022/06/13 05:12:11;;;;;;;11.68;3.10;;;14.80;99.90;;;;;;5012175;28;20095;-72
2022/06/13 05:14:50;;;;;;;9.57;3.55;;;14.90;99.90;;;;;;5029353;28;20442;-72
2022/06/13 05:17:34;;;;;;;7.47;2.47;;;14.80;99.90;;;;;;5027948;28;20053;-72
2022/06/13 05:20:37;;;;;;;8.68;2.60;;;14.80;99.90;;;;;;5029812;28;20088;-72
2022/06/13 05:23:29;;;;;;;7.22;2.47;;;14.80;99.90;;;;;;5028719;28;20423;-72
2022/06/13 05:25:58;;;;;;;8.73;2.30;;;14.70;99.90;;;;;;5029095;28;20047;-72
2022/06/13 05:28:29;;;;;;;6.20;2.20;;;14.80;99.90;;;;;;5028893;28;20037;-72
2022/06/13 05:30:57;;;;;;;5.93;2.00;;;14.70;99.90;;;;;;5028219;28;20079;-72
2022/06/13 05:33:26;;;;;;;4.05;1.80;;;14.80;99.90;;;;;;5000290;28;20394;-72
2022/06/13 05:35:54;;;;;;;2.92;1.45;;;14.90;99.90;;;;;;5008490;28;20096;-72
2022/06/13 05:38:29;;;;;;;4.45;1.65;;;15.00;99.90;;;;;;4989309;28;20079;-70
2022/06/13 05:40:55;;;;;;;3.22;1.55;;;14.90;99.90;;;;;;5009643;28;20049;-71
2022/06/13 05:43:20;;;;;;;3.67;1.58;;;14.90;99.90;;;;;;4991546;28;20057;-71
2022/06/13 05:45:46;;;;;;;3.75;1.67;;;15.30;99.90;;;;;;5007198;28;20093;-71
2022/06/13 05:48:15;;;;;;;3.88;1.60;;;15.20;99.90;;;;;;5008118;28;20053;-71
2022/06/13 05:50:42;;;;;;;5.35;1.48;;;15.00;99.90;;;;;;5008397;28;20046;-71
2022/06/13 05:53:12;;;;;;;6.57;1.63;;;15.80;99.90;;;;;;5007049;28;20125;-71
2022/06/13 05:55:38;;;;;;;4.10;1.70;;;15.10;99.90;;;;;;4991405;28;20053;-72
2022/06/13 05:58:04;;;;;;;4.30;1.73;;;15.10;99.90;;;;;;5010991;28;20045;-73
2022/06/13 06:00:52;;;;;;;4.60;1.60;;;15.20;99.90;;;;;;4991090;28;20054;-72
2022/06/13 06:03:17;;;;;;;6.00;1.90;;;15.40;99.90;;;;;;4990108;28;20057;-71
2022/06/13 06:05:44;;;;;;;6.75;1.73;;;15.90;99.90;;;;;;5007974;28;20398;-71
2022/06/13 06:08:18;;;;;;;5.55;1.90;;;15.20;99.90;;;;;;4990178;28;20042;-71
2022/06/13 06:10:44;;;;;;;4.15;1.70;;;15.20;99.90;;;;;;5008533;28;20398;-71
2022/06/13 06:13:14;;;;;;;7.47;2.00;;;15.20;99.90;;;;;;5007190;28;20052;-72
2022/06/13 06:15:41;;;;;;;7.50;1.83;;;15.20;99.90;;;;;;4989913;28;20145;-72
2022/06/13 06:18:07;;;;;;;7.95;1.85;;;15.20;99.90;;;;;;5007767;28;20053;-71
2022/06/13 06:20:32;;;;;;;5.43;2.00;;;15.10;99.90;;;;;;5009799;28;20125;-71
2022/06/13 06:22:58;;;;;;;7.30;1.98;;;15.20;99.90;;;;;;5008491;28;20402;-72
2022/06/13 06:25:23;;;;;;;4.22;1.58;;;15.30;99.90;;;;;;5007909;28;20100;-72
2022/06/13 06:27:49;;;;;;;7.03;1.83;;;15.30;99.90;;;;;;5008609;28;20046;-71
2022/06/13 06:30:17;;;;;;;5.50;1.90;;;15.40;99.90;;;;;;5010748;28;20077;-72
2022/06/13 06:32:43;;;;;;;8.27;2.53;;;15.50;99.90;;;;;;5009427;28;20038;-72
2022/06/13 06:35:09;;;;;;;6.03;1.90;;;15.30;99.90;;;;;;5007422;28;20053;-72
2022/06/13 06:37:46;;;;;;;5.80;2.00;;;15.30;99.90;;;;;;5006942;28;20041;-73
2022/06/13 06:40:14;;;;;;;8.77;1.90;;;15.30;99.90;;;;;;5007928;28;20046;-72
2022/06/13 06:42:40;;;;;;;7.10;2.00;;;15.40;99.90;;;;;;5006989;28;20053;-71
2022/06/13 06:45:06;;;;;;;5.93;1.90;;;15.60;99.90;;;;;;5026178;28;20049;-71
2022/06/13 06:47:32;;;;;;;7.28;2.10;;;15.70;99.90;;;;;;5028168;28;20587;-71
2022/06/13 06:49:58;;;;;;;7.07;1.90;;;15.80;99.90;;;;;;5011268;28;20057;-71
2022/06/13 06:52:24;;;;;;;5.60;1.80;;;16.30;99.90;;;;;;5030612;28;20053;-71
2022/06/13 07:00:19;;;;;;;6.78;2.10;;;16.30;99.90;;;;;;5031609;28;20053;-72
2022/06/13 07:02:45;;;;;;;10.15;2.22;;;16.20;99.90;;;;;;5011750;28;20116;-72
2022/06/13 07:05:11;;;;;;;6.20;1.80;;;16.30;99.90;;;;;;5031375;28;20079;-72
2022/06/13 07:07:37;;;;;;;8.30;2.10;;;16.60;99.90;;;;;;5012648;28;20053;-72
2022/06/13 07:10:03;;;;;;;6.95;2.03;;;16.20;99.90;;;;;;5030917;28;20091;-71
2022/06/13 07:12:29;;;;;;;6.25;2.08;;;16.10;99.90;;;;;;5031384;28;20045;-71
2022/06/13 07:14:55;;;;;;;5.70;1.92;;;16.00;99.90;;;;;;4994524;28;20052;-72
2022/06/13 07:17:22;;;;;;;9.15;2.00;;;15.90;99.90;;;;;;5012817;28;20339;-72
2022/06/13 07:19:47;;;;;;;5.57;2.00;;;15.80;99.90;;;;;;5032410;28;20541;-72
2022/06/13 07:22:19;;;;;;;6.93;2.17;;;16.00;99.90;;;;;;5015161;28;20155;-72
2022/06/13 07:24:45;;;;;;;8.23;2.35;;;16.00;99.90;;;;;;5031484;28;20134;-71
2022/06/13 07:27:13;;;;;;;7.40;1.88;;;16.00;99.90;;;;;;5031068;28;20049;-71
2022/06/13 07:29:39;;;;;;;7.00;2.33;;;16.60;99.90;;;;;;5030590;28;20127;-71
2022/06/13 07:32:07;;;;;;;8.50;2.00;;;16.40;99.90;;;;;;5030032;28;20081;-71
2022/06/13 07:34:34;;;;;;;11.40;2.15;;;16.50;99.90;;;;;;5031008;28;20052;-71
2022/06/13 07:37:03;;;;;;;7.55;2.05;;;16.60;99.90;;;;;;5029233;28;20061;-73
2022/06/13 07:39:28;;;;;;;5.78;1.73;;;16.40;99.90;;;;;;5030209;28;20045;-72
2022/06/13 07:41:55;;;;;;;7.60;2.08;;;16.40;99.90;;;;;;5012813;28;20386;-73
2022/06/13 07:44:31;;;;;;;7.85;2.13;;;16.70;99.90;;;;;;5018386;28;20054;-73
2022/06/13 07:46:57;;;;;;;8.88;2.05;;;16.50;99.90;;;;;;5009282;28;20093;-73
2022/06/13 07:49:23;;;;;;;9.10;1.83;;;16.70;99.90;;;;;;5010157;28;20046;-75
2022/06/13 07:51:49;;;;;;;9.85;2.55;;;16.70;99.90;;;;;;4975893;28;20053;-73
2022/06/13 07:54:16;;;;;;;5.72;1.90;;;16.70;99.90;;;;;;5010653;28;20490;-73
2022/06/13 07:56:43;;;;;;;9.40;1.80;;;17.10;99.90;;;;;;5009765;28;20046;-73
2022/06/13 07:59:13;;;;;;;7.53;2.00;;;16.60;99.90;;;;;;5010671;28;20045;-73
2022/06/13 08:01:39;;;;;;;5.30;1.67;;;16.70;99.90;;;;;;5008612;28;20133;-73
2022/06/13 08:04:04;;;;;;;5.85;1.90;;;16.90;99.90;;;;;;5010089;28;20053;-74
2022/06/13 08:06:30;;;;;;;6.88;1.75;;;16.80;99.90;;;;;;5010058;28;20054;-74
2022/06/13 08:08:56;;;;;;;8.27;1.70;;;16.90;99.90;;;;;;5009777;28;20052;-73
2022/06/13 08:11:30;;;;;;;7.07;1.67;;;16.90;99.90;;;;;;5009726;28;20137;-73
2022/06/13 08:13:56;;;;;;;6.70;1.60;;;17.00;99.90;;;;;;5010292;28;20554;-73
2022/06/13 08:16:22;;;;;;;6.80;1.58;;;17.10;99.90;;;;;;4991827;28;20372;-72
2022/06/13 08:18:48;;;;;;;7.22;1.95;;;17.00;99.90;;;;;;5009803;28;20546;-73
2022/06/13 08:21:13;;;;;;;7.90;1.60;;;17.00;99.90;;;;;;5010286;28;20398;-73
2022/06/13 08:23:39;;;;;;;7.57;1.70;;;17.00;99.90;;;;;;5028067;28;20088;-73
2022/06/13 08:26:05;;;;;;;7.07;1.58;;;17.10;99.90;;;;;;5029067;28;20061;-73
2022/06/13 08:28:30;;;;;;;5.43;1.55;;;17.10;99.90;;;;;;5029493;28;20048;-73
2022/06/13 08:31:09;;;;;;;6.50;2.05;;;17.20;99.90;;;;;;5011654;28;20115;-73
2022/06/13 08:33:35;;;;;;;6.80;1.83;;;17.10;99.90;;;;;;5029309;28;20121;-73
2022/06/13 08:36:01;;;;;;;6.15;1.70;;;17.10;99.90;;;;;;5013242;28;20045;-73
2022/06/13 08:38:26;;;;;;;9.20;1.77;;;17.10;99.90;;;;;;5029381;28;20375;-73
2022/06/13 08:41:06;;;;;;;6.13;1.63;;;17.20;99.90;;;;;;5028674;28;20056;-73
2022/06/13 08:43:43;;;;;;;11.95;1.90;;;17.40;99.90;;;;;;5023849;28;20046;-73
2022/06/13 08:46:26;;;;;;;7.22;1.70;;;17.60;99.90;;;;;;4991011;28;20103;-72
2022/06/13 08:49:05;;;;;;;10.95;2.28;;;17.60;99.90;;;;;;5010236;28;20391;-73
2022/06/13 08:51:57;;;;;;;6.78;1.58;;;17.30;99.90;;;;;;5010456;28;20418;-73
2022/06/13 08:54:30;;;;;;;6.95;1.77;;;17.20;99.90;;;;;;5011763;28;20041;-73
2022/06/13 08:56:58;;;;;;;6.43;1.80;;;17.20;99.90;;;;;;4992289;28;20061;-73
2022/06/13 08:59:37;;;;;;;8.25;1.70;;;17.50;99.90;;;;;;5005275;28;20053;-73
2022/06/13 09:02:15;;;;;;;6.53;1.50;;;17.70;99.90;;;;;;5008874;28;20092;-72
2022/06/13 09:04:53;;;;;;;5.60;1.60;;;17.90;99.90;;;;;;5009387;28;20129;-73
2022/06/13 09:07:29;;;;;;;10.30;1.65;;;18.00;99.90;;;;;;5007992;28;20107;-72
2022/06/13 09:10:01;;;;;;;5.95;1.73;;;18.00;99.90;;;;;;4991339;28;20056;-72
2022/06/13 09:12:36;;;;;;;6.85;1.60;;;18.20;99.90;;;;;;5008702;28;20115;-72
2022/06/13 09:15:14;;;;;;;6.85;1.70;;;18.30;99.90;;;;;;5008764;28;20052;-72
2022/06/13 09:18:13;;;;;;;6.72;1.75;;;18.40;99.90;;;;;;5007986;28;20092;-72
2022/06/13 09:20:53;;;;;;;5.35;1.50;;;18.50;99.90;;;;;;4991655;28;20056;-72
2022/06/13 09:23:41;;;;;;;8.10;1.80;;;18.40;99.90;;;;;;5008116;28;20054;-74
2022/06/13 09:26:14;;;;;;;5.57;1.85;;;18.50;99.90;;;;;;5008900;28;20057;-74
2022/06/13 09:28:51;;;;;;;5.07;1.60;;;18.70;99.90;;;;;;4990243;28;20045;-74
2022/06/13 09:31:44;;;;;;;9.95;1.80;;;18.60;99.90;;;;;;5007797;28;20053;-74
2022/06/13 09:34:35;;;;;;;6.07;1.83;;;18.50;99.90;;;;;;5009229;28;20117;-74
2022/06/13 09:37:10;;;;;;;7.50;1.70;;;18.80;99.90;;;;;;5009251;28;20045;-74
2022/06/13 09:39:37;;;;;;;8.80;1.70;;;19.00;99.90;;;;;;5008336;28;20443;-74
2022/06/13 09:42:06;;;;;;;8.15;1.70;;;19.10;99.90;;;;;;5008026;28;20041;-74
2022/06/13 09:44:45;;;;;;;6.00;1.90;;;19.20;99.90;;;;;;5022150;28;20421;-74
2022/06/13 09:47:17;;;;;;;5.53;1.70;;;19.30;99.90;;;;;;5027794;28;20053;-74
2022/06/13 09:50:20;;;;;;;8.30;1.70;;;19.20;99.90;;;;;;5027580;28;20124;-74
2022/06/13 09:53:11;;;;;;;9.23;1.70;;;19.10;99.90;;;;;;4994082;28;20067;-74
2022/06/13 09:55:47;;;;;;;6.50;1.60;;;19.20;99.90;;;;;;5027694;28;20053;-74
2022/06/13 09:58:32;;;;;;;8.13;1.90;;;19.10;99.90;;;;;;5027843;28;20179;-74
2022/06/13 10:01:21;;;;;;;9.40;2.00;;;18.80;99.90;;;;;;5013032;28;20485;-74
2022/06/13 10:03:49;;;;;;;8.35;2.00;;;18.40;99.90;;;;;;5027180;28;20053;-73
2022/06/13 10:06:42;;;;;;;6.57;1.92;;;19.00;99.90;;;;;;5027903;28;20049;-73
2022/06/13 10:09:15;;;;;;;7.72;1.95;;;19.40;99.90;;;;;;5027419;28;20390;-73
2022/06/13 10:12:04;;;;;;;6.50;1.77;;;21.00;99.90;;;;;;5027332;28;20050;-73
2022/06/13 10:14:53;;;;;;;7.90;1.90;;;21.50;98.70;;;;;;5029498;28;20045;-74
2022/06/13 10:17:32;;;;;;;7.50;2.08;;;21.20;99.00;;;;;;5026483;28;20042;-74
2022/06/13 10:20:35;;;;;;;8.20;2.00;;;21.80;99.40;;;;;;5028576;28;20049;-71
2022/06/13 10:23:37;;;;;;;7.55;1.80;;;22.00;96.80;;;;;;5031739;28;20052;-71
2022/06/13 10:26:18;;;;;;;6.57;1.65;;;23.70;94.80;;;;;;5011502;28;20053;-71
2022/06/13 10:29:02;;;;;;;6.15;1.60;;;26.90;91.70;;;;;;5010097;28;20486;-71
2022/06/13 10:31:57;;;;;;;7.50;1.90;;;27.60;90.10;;;;;;5025356;28;20553;-71
2022/06/13 10:34:57;;;;;;;5.93;1.70;;;27.10;86.20;;;;;;4990909;28;20065;-71
2022/06/13 10:37:44;;;;;;;10.85;1.98;;;25.20;89.00;;;;;;4990673;28;20398;-71
2022/06/13 10:40:10;;;;;;;7.18;1.80;;;24.20;91.70;;;;;;5007469;28;20049;-71
2022/06/13 10:42:36;;;;;;;6.38;1.90;;;25.00;88.50;;;;;;5027331;28;20090;-71
2022/06/13 10:45:08;;;;;;;7.53;1.85;;;24.80;90.30;;;;;;5010333;28;20434;-70
2022/06/13 10:47:53;;;;;;;7.53;2.00;;;24.00;91.20;;;;;;5026287;28;20123;-70
2022/06/13 10:50:23;;;;;;;8.07;1.80;;;23.70;92.30;;;;;;5027512;28;20045;-70
2022/06/13 10:52:53;;;;;;;7.00;2.13;;;24.00;92.50;;;;;;5025663;28;20046;-70
2022/06/13 10:55:26;;;;;;;8.50;2.33;;;23.80;92.80;;;;;;5027783;28;20988;-71
2022/06/13 10:58:33;;;;;;;7.57;2.15;;;23.50;93.10;;;;;;5027901;28;20045;-71
2022/06/13 11:01:12;;;;;;;11.38;2.10;;;23.30;92.70;;;;;;4946441;29;20047;-71
2022/06/13 11:04:05;;;;;;;11.73;2.80;;;22.70;94.70;;;;;;5003522;28;20060;-71
2022/06/13 11:06:45;;;;;;;9.68;2.10;;;22.50;95.60;;;;;;5026252;28;20038;-71
2022/06/13 11:09:27;;;;;;;8.25;2.33;;;22.40;97.00;;;;;;5027295;28;20379;-71
2022/06/13 11:11:55;;;;;;;10.52;2.35;;;22.60;97.00;;;;;;5016445;28;20053;-71
2022/06/13 11:23:50;;;;;;;5.55;1.65;;;22.30;96.70;;;;;;5006275;28;20049;-71
2022/06/13 11:29:03;;;;;;;8.82;2.15;;;23.50;94.70;;;;;;5008058;28;20042;-71
2022/06/13 11:31:30;;;;;;;8.30;1.80;;;23.20;95.00;;;;;;4999171;28;20075;-71
2022/06/13 11:33:56;;;;;;;8.43;2.00;;;22.30;94.90;;;;;;5008014;28;20049;-71
2022/06/13 11:36:26;;;;;;;7.22;1.83;;;21.60;95.90;;;;;;5008419;28;20112;-71
2022/06/13 11:39:04;;;;;;;7.93;2.03;;;21.40;96.70;;;;;;4993839;28;20390;-71
2022/06/13 11:41:30;;;;;;;8.07;2.03;;;21.40;97.60;;;;;;4992555;28;20108;-71
2022/06/13 11:44:01;;;;;;;7.78;1.90;;;21.30;98.50;;;;;;5011398;28;20474;-70
2022/06/13 11:46:27;;;;;;;7.95;2.13;;;21.30;97.90;;;;;;5009469;28;20672;-70
2022/06/13 11:48:54;;;;;;;6.43;1.83;;;21.20;98.40;;;;;;5010425;28;20125;-70
2022/06/13 11:51:26;;;;;;;5.65;1.88;;;22.10;97.40;;;;;;5009849;28;20045;-71
2022/06/13 11:53:55;;;;;;;6.35;1.88;;;24.50;95.10;;;;;;5013838;28;20046;-70
2022/06/13 11:56:28;;;;;;;6.85;1.80;;;24.70;92.50;;;;;;4991824;28;20096;-70
2022/06/13 11:58:58;;;;;;;9.90;2.10;;;24.20;92.60;;;;;;5011194;28;20435;-70
2022/06/13 12:01:32;;;;;;;9.95;2.17;;;23.10;94.00;;;;;;5010095;28;20041;-70
2022/06/13 12:04:07;;;;;;;10.05;2.20;;;22.30;95.80;;;;;;5009498;28;20057;-70
2022/06/13 12:06:57;;;;;;;6.80;2.08;;;23.00;95.60;;;;;;4994614;28;20490;-71
2022/06/13 12:09:31;;;;;;;7.03;1.50;;;22.50;94.00;;;;;;5002614;28;20123;-71
2022/06/13 12:12:06;;;;;;;5.57;1.38;;;21.90;94.80;;;;;;4984575;28;20052;-70
2022/06/13 12:14:41;;;;;;;6.88;1.88;;;21.30;95.50;;;;;;5010439;28;20068;-71
2022/06/13 12:17:19;;;;;;;9.53;1.83;;;21.20;96.80;;;;;;5009215;28;20109;-69
2022/06/13 12:19:59;;;;;;;8.23;1.98;;;21.20;96.60;;;;;;5011915;28;20057;-70
2022/06/13 12:22:45;;;;;;;7.38;2.10;;;20.80;97.60;;;;;;4992119;28;20375;-71
2022/06/13 12:25:14;;;;;;;9.80;2.00;;;20.50;98.70;;;;;;4991833;28;20054;-70
2022/06/13 12:28:03;;;;;;;8.13;2.45;;;20.50;99.40;;;;;;5010252;28;20484;-71
2022/06/13 12:30:50;;;;;;;11.73;2.10;;;20.50;99.80;;;;;;5009833;28;20053;-71
2022/06/13 12:33:37;;;;;;;8.63;2.15;;;20.50;99.90;;;;;;5008973;28;20061;-72
2022/06/13 12:36:34;;;;;;;7.25;1.83;;;20.50;99.90;;;;;;5010368;28;20076;-70
2022/06/13 12:39:29;;;;;;;7.63;1.90;;;20.50;99.90;;;;;;4955047;28;20054;-70
2022/06/13 12:42:14;;;;;;;5.03;1.63;;;20.30;99.90;;;;;;5010041;28;20069;-70
2022/06/13 12:45:23;;;;;;;6.75;1.70;;;20.20;99.90;;;;;;5024599;28;20037;-70
2022/06/13 12:48:35;;;;;;;5.47;1.40;;;20.40;99.90;;;;;;5011551;28;20065;-70
2022/06/13 12:51:39;;;;;;;7.20;1.65;;;20.50;99.90;;;;;;5031804;28;20401;-70
2022/06/13 12:54:07;;;;;;;7.35;1.85;;;20.60;99.90;;;;;;5012707;28;20053;-72
2022/06/13 12:57:00;;;;;;;5.20;1.50;;;20.60;99.90;;;;;;5030489;28;20445;-71
2022/06/13 12:59:54;;;;;;;6.03;1.73;;;20.60;99.90;;;;;;5028826;28;20076;-71
2022/06/13 13:02:38;;;;;;;6.85;1.80;;;20.70;99.90;;;;;;5008648;28;20099;-71
2022/06/13 13:05:18;;;;;;;5.63;1.55;;;20.50;99.90;;;;;;5009523;28;20053;-70
2022/06/13 13:08:09;;;;;;;6.68;1.25;;;20.40;99.70;;;;;;5007928;28;20111;-70
2022/06/13 13:10:47;;;;;;;4.88;1.40;;;20.30;99.50;;;;;;5008854;28;20379;-70
2022/06/13 13:13:20;;;;;;;6.82;1.50;;;20.40;99.50;;;;;;5008770;28;20445;-70
2022/06/13 13:16:04;;;;;;;4.22;1.27;;;20.40;99.20;;;;;;5008838;28;20046;-70
2022/06/13 13:19:07;;;;;;;6.60;1.80;;;20.40;99.50;;;;;;5008837;28;20406;-71
2022/06/13 13:21:39;;;;;;;5.55;1.48;;;20.20;99.90;;;;;;5007768;28;20128;-71
2022/06/13 13:24:24;;;;;;;5.53;1.70;;;20.00;99.90;;;;;;5008072;28;20052;-71
2022/06/13 13:26:50;;;;;;;;;;;20.10;99.90;;;;;;5008925;28;20379;-71
2022/06/13 13:29:41;;;;;;;5.53;1.55;;;20.20;99.90;;;;;;5008461;28;19932;-71
2022/06/13 13:32:22;;;;;;;3.97;1.60;;;20.20;99.90;;;;;;5007996;28;20096;-71
2022/06/13 13:35:09;;;;;;;4.63;1.58;;;20.40;99.10;;;;;;5008179;28;20050;-70
2022/06/13 13:37:39;;;;;;;5.30;1.40;;;20.50;99.40;;;;;;5007805;28;20053;-71
2022/06/13 13:40:23;;;;;;;3.47;1.30;;;20.50;98.70;;;;;;5009116;28;20045;-71
2022/06/13 13:43:22;;;;;;;3.85;1.35;;;20.50;97.80;;;;;;4990381;28;20450;-71
2022/06/13 13:45:58;;;;;;;4.97;1.80;;;20.30;97.60;;;;;;5008470;28;20128;-71